Time,TemperatureF,DewpointF,PressureIn,WindDirection,WindDirectionDegrees,WindSpeedMPH,WindSpeedGustMPH,Humidity,HourlyPrecipIn,Conditions,Clouds,dailyrainin,SoftwareType,DateUTC
2013-01-07 00:00:00,27.7,23.8,25.47,WSW,240,0.0,2.0,85,0.00,,SKC,0.00,VWS V14.01,2013-01-07 05:00:00,
2013-01-07 00:01:00,27.7,23.8,25.47,WSW,240,2.0,3.0,85,0.00,,SKC,0.00,VWS V14.01,2013-01-07 05:01:00,
2013-01-07 00:06:00,27.8,23.9,25.69,WSW,240,2.0,2.0,85,0.00,,SKC,0.00,VWS V14.01,2013-01-07 05:06:00,
2013-01-07 00:11:00,27.7,23.8,25.69,WSW,239,0.0,3.0,85,0.00,,SKC,0.00,VWS V14.01,2013-01-07 05:11:00,
2013-01-07 00:16:00,27.7,23.8,25.69,WSW,240,0.0,2.0,85,0.00,,SKC,0.00,VWS V14.01,2013-01-07 05:16:00,
2013-01-07 00:21:00,27.6,23.7,25.69,WSW,240,2.0,3.0,85,0.00,,SKC,0.00,VWS V14.01,2013-01-07 05:21:00,
2013-01-07 00:26:00,27.6,23.7,25.69,SW,217,0.0,3.0,85,0.00,,SKC,0.00,VWS V14.01,2013-01-07 05:26:00,
2013-01-07 00:31:00,27.6,23.7,25.69,SW,217,0.0,3.0,85,0.00,,SKC,0.00,VWS V14.01,2013-01-07 05:31:00,
2013-01-07 00:36:00,27.6,23.7,25.69,SW,217,0.0,2.0,85,0.00,,SKC,0.00,VWS V14.01,2013-01-07 05:36:00,
2013-01-07 00:41:00,27.7,23.8,25.69,SW,217,1.0,2.0,85,0.00,,SKC,0.00,VWS V14.01,2013-01-07 05:41:00,
2013-01-07 00:46:00,27.6,23.7,25.69,SW,217,0.0,2.0,85,0.00,,SKC,0.00,VWS V14.01,2013-01-07 05:46:00,
2013-01-07 00:51:00,27.7,23.8,25.69,SW,217,2.0,3.0,85,0.00,,SKC,0.00,VWS V14.01,2013-01-07 05:51:00,
2013-01-07 00:56:00,27.7,23.8,25.69,SW,217,0.0,3.0,85,0.00,,SKC,0.00,VWS V14.01,2013-01-07 05:56:00,
2013-01-07 01:01:00,27.7,23.8,24.46,SW,217,1.0,2.0,85,0.00,,SKC,0.00,VWS V14.01,2013-01-07 06:01:00,
2013-01-07 01:06:00,27.8,23.9,24.46,SW,234,0.0,3.0,85,0.00,,SKC,0.00,VWS V14.01,2013-01-07 06:06:00,
2013-01-07 01:11:00,27.8,23.9,24.80,SW,236,2.0,4.0,85,0.00,,SKC,0.00,VWS V14.01,2013-01-07 06:11:00,
2013-01-07 01:16:00,27.9,24.0,24.80,WSW,239,2.0,3.0,85,0.00,,SKC,0.00,VWS V14.01,2013-01-07 06:16:00,
2013-01-07 01:21:00,27.8,23.9,24.80,WSW,238,0.0,2.0,85,0.00,,SKC,0.00,VWS V14.01,2013-01-07 06:21:00,
2013-01-07 01:26:00,27.8,23.9,24.80,WSW,240,0.0,3.0,85,0.00,,SKC,0.00,VWS V14.01,2013-01-07 06:26:00,
2013-01-07 01:31:00,27.8,23.9,24.80,WSW,240,1.0,3.0,85,0.00,,SKC,0.00,VWS V14.01,2013-01-07 06:31:00,
2013-01-07 01:36:00,27.8,23.9,24.80,WSW,240,0.0,2.0,85,0.00,,SKC,0.00,VWS V14.01,2013-01-07 06:36:00,
2013-01-07 01:41:00,27.8,23.9,24.80,WSW,240,0.0,1.0,85,0.00,,SKC,0.00,VWS V14.01,2013-01-07 06:41:00,
2013-01-07 01:46:00,27.7,23.8,24.80,WSW,240,1.0,3.0,85,0.00,,SKC,0.00,VWS V14.01,2013-01-07 06:46:00,
2013-01-07 01:51:00,27.7,23.8,24.80,WSW,241,1.0,2.0,85,0.00,,SKC,0.00,VWS V14.01,2013-01-07 06:51:00,
2013-01-07 01:56:00,27.7,23.8,24.80,WSW,240,0.0,3.0,85,0.00,,SKC,0.00,VWS V14.01,2013-01-07 06:56:00,
2013-01-07 02:01:00,27.6,23.7,24.80,WSW,240,0.0,2.0,85,0.00,,SKC,0.00,VWS V14.01,2013-01-07 07:01:00,
2013-01-07 02:06:00,27.6,23.7,24.80,WSW,240,1.0,2.0,85,0.00,,SKC,0.00,VWS V14.01,2013-01-07 07:06:00,
2013-01-07 02:11:00,27.6,23.7,24.80,WSW,240,1.0,2.0,85,0.00,,SKC,0.00,VWS V14.01,2013-01-07 07:11:00,
2013-01-07 02:16:00,27.5,23.6,24.80,WSW,241,2.0,3.0,85,0.00,,SKC,0.00,VWS V14.01,2013-01-07 07:16:00,
2013-01-07 02:21:00,27.4,23.8,24.80,WSW,240,0.0,1.0,86,0.00,,SKC,0.00,VWS V14.01,2013-01-07 07:21:00,
2013-01-07 02:26:00,27.3,23.4,24.80,WSW,241,3.0,3.0,85,0.00,,SKC,0.00,VWS V14.01,2013-01-07 07:26:00,
2013-01-07 02:31:00,27.2,23.3,24.97,WSW,241,1.0,2.0,85,0.00,,SKC,0.00,VWS V14.01,2013-01-07 07:31:00,
2013-01-07 02:36:00,27.1,23.2,24.97,WSW,241,0.0,2.0,85,0.00,,SKC,0.00,VWS V14.01,2013-01-07 07:36:00,
2013-01-07 02:41:00,27.0,23.1,24.97,WSW,247,0.0,4.0,85,0.00,,SKC,0.00,VWS V14.01,2013-01-07 07:41:00,
2013-01-07 02:46:00,27.0,23.1,24.97,WSW,247,0.0,2.0,85,0.00,,SKC,0.00,VWS V14.01,2013-01-07 07:46:00,
2013-01-07 02:51:00,26.9,23.0,24.97,WSW,247,0.0,3.0,85,0.00,,SKC,0.00,VWS V14.01,2013-01-07 07:51:00,
2013-01-07 02:56:00,26.8,22.9,24.97,WSW,247,0.0,2.0,85,0.00,,SKC,0.00,VWS V14.01,2013-01-07 07:56:00,
2013-01-07 03:01:00,26.7,23.1,24.97,WSW,246,0.0,0.0,86,0.00,,SKC,0.00,VWS V14.01,2013-01-07 08:01:00,
2013-01-07 03:06:00,26.5,22.9,24.97,WSW,246,0.0,0.0,86,0.00,,SKC,0.00,VWS V14.01,2013-01-07 08:06:00,
2013-01-07 03:11:00,26.3,22.7,24.97,WSW,246,0.0,1.0,86,0.00,,SKC,0.00,VWS V14.01,2013-01-07 08:11:00,
2013-01-07 03:16:00,26.2,22.6,24.97,WSW,247,0.0,0.0,86,0.00,,SKC,0.00,VWS V14.01,2013-01-07 08:16:00,
2013-01-07 03:21:00,25.9,22.3,24.97,WSW,247,0.0,0.0,86,0.00,,SKC,0.00,VWS V14.01,2013-01-07 08:21:00,
2013-01-07 03:26:00,25.7,22.4,24.97,WSW,247,0.0,0.0,87,0.00,,SKC,0.00,VWS V14.01,2013-01-07 08:26:00,
2013-01-07 03:31:00,25.4,22.1,24.97,WSW,246,0.0,0.0,87,0.00,,SKC,0.00,VWS V14.01,2013-01-07 08:31:00,
2013-01-07 03:36:00,25.2,21.9,24.97,WSW,247,0.0,0.0,87,0.00,,SKC,0.00,VWS V14.01,2013-01-07 08:36:00,
2013-01-07 03:41:00,24.9,21.6,24.97,WSW,247,0.0,0.0,87,0.00,,SKC,0.00,VWS V14.01,2013-01-07 08:41:00,
2013-01-07 03:46:00,24.7,21.4,24.97,WSW,247,0.0,0.0,87,0.00,,SKC,0.00,VWS V14.01,2013-01-07 08:46:00,
2013-01-07 03:51:00,24.5,21.5,24.97,WSW,247,0.0,0.0,88,0.00,,SKC,0.00,VWS V14.01,2013-01-07 08:51:00,
2013-01-07 03:56:00,24.3,21.3,24.97,WSW,247,0.0,0.0,88,0.00,,SKC,0.00,VWS V14.01,2013-01-07 08:56:00,
2013-01-07 04:01:00,24.1,21.3,24.97,WSW,247,0.0,0.0,89,0.00,,SKC,0.00,VWS V14.01,2013-01-07 09:01:00,
2013-01-07 04:06:00,23.9,21.1,24.97,WSW,246,2.0,2.0,89,0.00,,SKC,0.00,VWS V14.01,2013-01-07 09:06:00,
2013-01-07 04:11:00,23.9,21.1,24.97,WSW,247,0.0,2.0,89,0.00,,SKC,0.00,VWS V14.01,2013-01-07 09:11:00,
2013-01-07 04:16:00,23.6,20.8,24.97,WSW,246,0.0,0.0,89,0.00,,SKC,0.00,VWS V14.01,2013-01-07 09:16:00,
2013-01-07 04:21:00,23.5,20.7,24.97,WSW,237,1.0,3.0,89,0.00,,SKC,0.00,VWS V14.01,2013-01-07 09:21:00,
2013-01-07 04:26:00,23.3,20.8,24.97,SW,236,0.0,2.0,90,0.00,,SKC,0.00,VWS V14.01,2013-01-07 09:26:00,
2013-01-07 04:31:00,23.1,20.6,24.97,SW,236,1.0,1.0,90,0.00,,SKC,0.00,VWS V14.01,2013-01-07 09:31:00,
2013-01-07 04:36:00,23.0,20.5,24.97,SW,236,0.0,0.0,90,0.00,,SKC,0.00,VWS V14.01,2013-01-07 09:36:00,
2013-01-07 04:41:00,22.7,20.2,24.97,WSW,237,0.0,0.0,90,0.00,,SKC,0.00,VWS V14.01,2013-01-07 09:41:00,
2013-01-07 04:46:00,22.5,20.0,25.04,SW,236,3.0,3.0,90,0.00,,SKC,0.00,VWS V14.01,2013-01-07 09:46:00,
2013-01-07 04:51:00,22.4,19.9,25.04,SW,236,0.0,1.0,90,0.00,,SKC,0.00,VWS V14.01,2013-01-07 09:51:00,
2013-01-07 04:56:00,22.2,19.7,24.54,SW,236,0.0,1.0,90,0.00,,SKC,0.00,VWS V14.01,2013-01-07 09:56:00,
2013-01-07 05:01:00,22.0,19.5,24.54,SW,236,0.0,0.0,90,0.00,,SKC,0.00,VWS V14.01,2013-01-07 10:01:00,
2013-01-07 05:06:00,21.6,19.1,24.54,SW,236,0.0,0.0,90,0.00,,SKC,0.00,VWS V14.01,2013-01-07 10:06:00,
2013-01-07 05:11:00,21.3,18.8,24.54,SW,236,0.0,0.0,90,0.00,,SKC,0.00,VWS V14.01,2013-01-07 10:11:00,
2013-01-07 05:16:00,21.2,18.7,24.54,SW,236,0.0,0.0,90,0.00,,SKC,0.00,VWS V14.01,2013-01-07 10:16:00,
2013-01-07 05:21:00,21.0,18.5,24.54,SW,236,0.0,0.0,90,0.00,,SKC,0.00,VWS V14.01,2013-01-07 10:21:00,
2013-01-07 05:26:00,20.8,18.3,24.54,SW,236,0.0,0.0,90,0.00,,SKC,0.00,VWS V14.01,2013-01-07 10:26:00,
2013-01-07 05:31:00,20.7,18.5,24.54,SW,236,0.0,0.0,91,0.00,,SKC,0.00,VWS V14.01,2013-01-07 10:31:00,
2013-01-07 05:36:00,20.6,18.4,24.54,SW,236,0.0,0.0,91,0.00,,SKC,0.00,VWS V14.01,2013-01-07 10:36:00,
2013-01-07 05:41:00,20.6,18.4,24.54,SW,236,0.0,1.0,91,0.00,,SKC,0.00,VWS V14.01,2013-01-07 10:41:00,
2013-01-07 05:46:00,20.5,18.3,24.54,SW,236,0.0,0.0,91,0.00,,SKC,0.00,VWS V14.01,2013-01-07 10:46:00,
2013-01-07 05:51:00,20.3,18.1,24.98,SW,236,0.0,1.0,91,0.00,,SKC,0.00,VWS V14.01,2013-01-07 10:51:00,
2013-01-07 05:56:00,20.2,18.0,24.98,SW,236,0.0,1.0,91,0.00,,SKC,0.00,VWS V14.01,2013-01-07 10:56:00,
2013-01-07 06:01:00,20.2,18.0,24.98,SW,236,0.0,0.0,91,0.00,,SKC,0.00,VWS V14.01,2013-01-07 11:01:00,
2013-01-07 06:06:00,20.0,17.8,24.98,SW,236,0.0,0.0,91,0.00,,SKC,0.00,VWS V14.01,2013-01-07 11:06:00,
2013-01-07 06:11:00,20.0,17.8,25.52,SW,236,0.0,0.0,91,0.00,,SKC,0.00,VWS V14.01,2013-01-07 11:11:00,
2013-01-07 06:16:00,20.0,18.0,25.52,SW,235,0.0,0.0,92,0.00,,SKC,0.00,VWS V14.01,2013-01-07 11:16:00,
2013-01-07 06:21:00,20.0,18.0,25.52,SW,234,1.0,1.0,92,0.00,,SKC,0.00,VWS V14.01,2013-01-07 11:21:00,
2013-01-07 06:26:00,20.0,17.8,25.52,SW,234,1.0,2.0,91,0.00,,SKC,0.00,VWS V14.01,2013-01-07 11:26:00,
2013-01-07 06:31:00,19.9,17.7,25.52,SW,234,0.0,0.0,91,0.00,,SKC,0.00,VWS V14.01,2013-01-07 11:31:00,
2013-01-07 06:36:00,19.8,17.6,25.52,SW,234,1.0,1.0,91,0.00,,SKC,0.00,VWS V14.01,2013-01-07 11:36:00,
2013-01-07 06:41:00,19.9,18.0,25.52,SW,234,0.0,2.0,92,0.00,,SKC,0.00,VWS V14.01,2013-01-07 11:41:00,
2013-01-07 06:46:00,19.8,17.9,25.52,SW,234,1.0,2.0,92,0.00,,SKC,0.00,VWS V14.01,2013-01-07 11:46:00,
2013-01-07 06:51:00,19.8,17.9,25.52,SW,234,1.0,2.0,92,0.00,,SKC,0.00,VWS V14.01,2013-01-07 11:51:00,
2013-01-07 06:56:00,19.7,17.8,25.52,SW,234,0.0,1.0,92,0.00,,SKC,0.00,VWS V14.01,2013-01-07 11:56:00,
2013-01-07 07:01:00,19.6,17.7,25.52,SW,233,1.0,2.0,92,0.00,,SKC,0.00,VWS V14.01,2013-01-07 12:01:00,
2013-01-07 07:06:00,19.5,17.3,25.55,SW,233,0.0,0.0,91,0.00,,SKC,0.00,VWS V14.01,2013-01-07 12:06:00,
2013-01-07 07:11:00,19.4,17.5,25.55,SW,218,0.0,2.0,92,0.00,,SKC,0.00,VWS V14.01,2013-01-07 12:11:00,
2013-01-07 07:16:00,19.3,17.1,25.55,SW,218,0.0,0.0,91,0.00,,SKC,0.00,VWS V14.01,2013-01-07 12:16:00,
2013-01-07 07:21:00,19.1,16.9,25.55,SW,218,0.0,0.0,91,0.00,,SKC,0.00,VWS V14.01,2013-01-07 12:21:00,
2013-01-07 07:26:00,18.9,16.7,25.55,SW,218,0.0,0.0,91,0.00,,SKC,0.00,VWS V14.01,2013-01-07 12:26:00,
2013-01-07 07:31:00,18.8,16.6,25.55,SW,218,0.0,1.0,91,0.00,,SKC,0.00,VWS V14.01,2013-01-07 12:31:00,
2013-01-07 07:36:00,18.8,16.6,25.55,SW,218,0.0,0.0,91,0.00,,SKC,0.00,VWS V14.01,2013-01-07 12:36:00,
2013-01-07 07:41:00,18.8,16.6,25.55,SW,218,0.0,1.0,91,0.00,,SKC,0.00,VWS V14.01,2013-01-07 12:41:00,
2013-01-07 07:46:00,18.9,16.7,25.55,SW,217,2.0,2.0,91,0.00,,SKC,0.00,VWS V14.01,2013-01-07 12:46:00,
2013-01-07 07:51:00,19.0,17.1,25.55,SW,217,0.0,2.0,92,0.00,,SKC,0.00,VWS V14.01,2013-01-07 12:51:00,
2013-01-07 07:56:00,19.0,17.1,25.55,SW,217,0.0,0.0,92,0.00,,SKC,0.00,VWS V14.01,2013-01-07 12:56:00,
2013-01-07 08:01:00,19.0,17.1,25.68,SW,217,0.0,2.0,92,0.00,,SKC,0.00,VWS V14.01,2013-01-07 13:01:00,
2013-01-07 08:06:00,18.9,17.0,25.36,SW,217,0.0,1.0,92,0.00,,SKC,0.00,VWS V14.01,2013-01-07 13:06:00,
2013-01-07 08:11:00,18.9,17.0,25.90,SW,217,0.0,2.0,92,0.00,,SKC,0.00,VWS V14.01,2013-01-07 13:11:00,
2013-01-07 08:16:00,18.9,17.0,25.90,SW,217,0.0,2.0,92,0.00,,SKC,0.00,VWS V14.01,2013-01-07 13:16:00,
2013-01-07 08:21:00,19.0,17.1,25.90,SW,217,1.0,2.0,92,0.00,,SKC,0.00,VWS V14.01,2013-01-07 13:21:00,
2013-01-07 08:26:00,19.1,17.2,25.90,SW,217,1.0,1.0,92,0.00,,SKC,0.00,VWS V14.01,2013-01-07 13:26:00,
2013-01-07 08:31:00,19.2,17.3,25.90,SW,217,1.0,2.0,92,0.00,,SKC,0.00,VWS V14.01,2013-01-07 13:31:00,
2013-01-07 08:36:00,19.4,17.5,25.90,SW,216,0.0,2.0,92,0.00,,SKC,0.00,VWS V14.01,2013-01-07 13:36:00,
2013-01-07 08:41:00,19.5,17.6,25.90,SW,216,0.0,0.0,92,0.00,,SKC,0.00,VWS V14.01,2013-01-07 13:41:00,
2013-01-07 08:46:00,19.5,17.6,25.90,SW,216,0.0,2.0,92,0.00,,SKC,0.00,VWS V14.01,2013-01-07 13:46:00,
2013-01-07 08:51:00,19.7,17.8,25.90,South,174,1.0,3.0,92,0.00,,SKC,0.00,VWS V14.01,2013-01-07 13:51:00,
2013-01-07 08:56:00,19.9,18.0,25.90,South,175,0.0,2.0,92,0.00,,SKC,0.00,VWS V14.01,2013-01-07 13:56:00,
2013-01-07 09:01:00,20.0,18.0,25.90,South,175,2.0,3.0,92,0.00,,SKC,0.00,VWS V14.01,2013-01-07 14:01:00,
2013-01-07 09:06:00,20.3,18.4,25.90,SSW,198,0.0,4.0,92,0.00,,SKC,0.00,VWS V14.01,2013-01-07 14:06:00,
2013-01-07 09:11:00,20.6,18.6,25.90,SSW,196,2.0,4.0,92,0.00,,SKC,0.00,VWS V14.01,2013-01-07 14:11:00,
2013-01-07 09:16:00,21.0,19.0,25.61,South,181,2.0,4.0,92,0.00,,SKC,0.00,VWS V14.01,2013-01-07 14:16:00,
2013-01-07 09:21:00,21.4,19.4,25.61,South,184,0.0,5.0,92,0.00,,SKC,0.00,VWS V14.01,2013-01-07 14:21:00,
2013-01-07 09:26:00,21.8,19.8,25.61,SSW,202,4.0,4.0,92,0.00,,SKC,0.00,VWS V14.01,2013-01-07 14:26:00,
2013-01-07 09:31:00,22.0,20.0,25.61,SSW,194,4.0,5.0,92,0.00,,SKC,0.00,VWS V14.01,2013-01-07 14:31:00,
2013-01-07 09:36:00,22.4,20.4,25.61,SSW,196,2.0,5.0,92,0.00,,SKC,0.00,VWS V14.01,2013-01-07 14:36:00,
2013-01-07 09:41:00,22.6,20.4,25.61,SSW,209,0.0,5.0,91,0.00,,SKC,0.00,VWS V14.01,2013-01-07 14:41:00,
2013-01-07 09:46:00,23.0,20.8,25.61,South,182,2.0,4.0,91,0.00,,SKC,0.00,VWS V14.01,2013-01-07 14:46:00,
2013-01-07 09:51:00,23.4,21.2,25.61,South,184,1.0,5.0,91,0.00,,SKC,0.00,VWS V14.01,2013-01-07 14:51:00,
2013-01-07 09:56:00,23.9,21.4,25.61,SSW,193,0.0,5.0,90,0.00,,SKC,0.00,VWS V14.01,2013-01-07 14:56:00,
2013-01-07 10:01:00,24.2,21.7,25.61,South,186,3.0,5.0,90,0.00,,SKC,0.00,VWS V14.01,2013-01-07 15:01:00,
2013-01-07 10:06:00,24.6,21.8,25.61,SW,219,5.0,5.0,89,0.00,,SKC,0.00,VWS V14.01,2013-01-07 15:06:00,
2013-01-07 10:11:00,25.0,22.0,25.61,South,180,2.0,6.0,88,0.00,,SKC,0.00,VWS V14.01,2013-01-07 15:11:00,
2013-01-07 10:16:00,25.2,22.1,25.61,SSW,200,4.0,6.0,88,0.00,,SKC,0.00,VWS V14.01,2013-01-07 15:16:00,
2013-01-07 10:21:00,25.3,22.0,25.61,South,184,0.0,5.0,87,0.00,,SKC,0.00,VWS V14.01,2013-01-07 15:21:00,
2013-01-07 10:26:00,25.7,22.4,25.61,SSE,165,2.0,6.0,87,0.00,,SKC,0.00,VWS V14.01,2013-01-07 15:26:00,
2013-01-07 10:31:00,26.1,22.5,25.61,South,180,5.0,5.0,86,0.00,,SKC,0.00,VWS V14.01,2013-01-07 15:31:00,
2013-01-07 10:36:00,26.3,22.4,24.70,SSE,168,4.0,9.0,85,0.00,,SKC,0.00,VWS V14.01,2013-01-07 15:36:00,
2013-01-07 10:41:00,26.5,22.6,24.70,SSW,202,7.0,9.0,85,0.00,,SKC,0.00,VWS V14.01,2013-01-07 15:41:00,
2013-01-07 10:46:00,26.7,22.5,24.70,SSW,199,3.0,7.0,84,0.00,,SKC,0.00,VWS V14.01,2013-01-07 15:46:00,
2013-01-07 10:51:00,27.1,22.9,24.70,SSW,202,7.0,9.0,84,0.00,,SKC,0.00,VWS V14.01,2013-01-07 15:51:00,
2013-01-07 10:56:00,27.4,23.2,25.29,South,190,4.0,9.0,84,0.00,,SKC,0.00,VWS V14.01,2013-01-07 15:56:00,
2013-01-07 11:01:00,27.9,23.4,24.93,SSW,202,6.0,7.0,83,0.00,,SKC,0.00,VWS V14.01,2013-01-07 16:01:00,
2013-01-07 11:06:00,28.1,23.3,24.93,South,183,6.0,11.0,82,0.00,,SKC,0.00,VWS V14.01,2013-01-07 16:06:00,
2013-01-07 11:11:00,28.5,23.7,24.93,SW,223,2.0,8.0,82,0.00,,SKC,0.00,VWS V14.01,2013-01-07 16:11:00,
2013-01-07 11:16:00,29.0,24.2,24.25,SSW,194,0.0,6.0,82,0.00,,SKC,0.00,VWS V14.01,2013-01-07 16:16:00,
2013-01-07 11:21:00,29.4,24.0,24.25,SSW,203,9.0,10.0,80,0.00,,SKC,0.00,VWS V14.01,2013-01-07 16:21:00,
2013-01-07 11:26:00,29.3,23.9,24.25,SSW,199,2.0,8.0,80,0.00,,SKC,0.00,VWS V14.01,2013-01-07 16:26:00,
2013-01-07 11:31:00,29.6,24.2,24.25,SSW,194,2.0,7.0,80,0.00,,SKC,0.00,VWS V14.01,2013-01-07 16:31:00,
2013-01-07 11:36:00,30.0,24.3,24.25,SW,217,3.0,9.0,79,0.00,,SKC,0.00,VWS V14.01,2013-01-07 16:36:00,
2013-01-07 11:41:00,29.9,23.9,24.25,WSW,242,4.0,9.0,78,0.00,,SKC,0.00,VWS V14.01,2013-01-07 16:41:00,
2013-01-07 11:46:00,29.9,23.9,24.25,SW,220,0.0,5.0,78,0.00,,SKC,0.00,VWS V14.01,2013-01-07 16:46:00,
2013-01-07 11:51:00,29.7,23.7,24.25,SSW,205,4.0,10.0,78,0.00,,SKC,0.00,VWS V14.01,2013-01-07 16:51:00,
2013-01-07 11:56:00,29.9,23.9,24.25,SSE,156,2.0,6.0,78,0.00,,SKC,0.00,VWS V14.01,2013-01-07 16:56:00,
2013-01-07 12:01:00,29.8,23.8,24.25,SSW,198,4.0,10.0,78,0.00,,SKC,0.00,VWS V14.01,2013-01-07 17:01:00,
2013-01-07 12:06:00,29.9,23.9,24.25,SW,219,4.0,4.0,78,0.00,,SKC,0.00,VWS V14.01,2013-01-07 17:06:00,
2013-01-07 12:11:00,30.1,24.4,24.25,SW,217,0.0,5.0,79,0.00,,SKC,0.00,VWS V14.01,2013-01-07 17:11:00,
2013-01-07 12:15:00,30.7,24.7,24.25,SSW,196,9.0,10.0,78,0.00,,SKC,0.00,VWS V14.01,2013-01-07 17:15:00,
2013-01-07 12:20:00,30.4,24.1,24.25,SE,141,2.0,12.0,77,0.00,,SKC,0.00,VWS V14.01,2013-01-07 17:20:00,
2013-01-07 12:25:00,30.2,23.9,24.50,South,176,9.0,13.0,77,0.00,,SKC,0.00,VWS V14.01,2013-01-07 17:25:00,
2013-01-07 12:30:00,30.1,24.1,24.50,South,190,5.0,12.0,78,0.00,,SKC,0.00,VWS V14.01,2013-01-07 17:30:00,
2013-01-07 12:35:00,30.3,24.3,24.50,SW,223,3.0,10.0,78,0.00,,SKC,0.00,VWS V14.01,2013-01-07 17:35:00,
2013-01-07 12:40:00,30.5,24.2,24.50,SSW,196,5.0,9.0,77,0.00,,SKC,0.00,VWS V14.01,2013-01-07 17:40:00,
2013-01-07 12:45:00,30.7,24.7,24.62,SSW,198,6.0,13.0,78,0.00,,SKC,0.00,VWS V14.01,2013-01-07 17:45:00,
2013-01-07 12:50:00,31.0,24.6,24.78,SW,225,7.0,11.0,77,0.00,,SKC,0.00,VWS V14.01,2013-01-07 17:50:00,
2013-01-07 12:55:00,31.0,24.6,24.78,SSW,200,10.0,14.0,77,0.00,,SKC,0.00,VWS V14.01,2013-01-07 17:55:00,
2013-01-07 13:00:00,31.2,24.8,24.78,SSE,149,2.0,10.0,77,0.00,,SKC,0.00,VWS V14.01,2013-01-07 18:00:00,
2013-01-07 13:05:00,31.6,24.9,24.48,SW,227,2.0,10.0,76,0.00,,SKC,0.00,VWS V14.01,2013-01-07 18:05:00,
2013-01-07 13:10:00,31.9,25.2,24.48,SW,216,13.0,13.0,76,0.00,,SKC,0.00,VWS V14.01,2013-01-07 18:10:00,
2013-01-07 13:15:00,31.8,25.1,24.48,SSE,167,5.0,9.0,76,0.00,,SKC,0.00,VWS V14.01,2013-01-07 18:15:00,
2013-01-07 13:20:00,32.1,25.4,25.04,SW,217,4.0,13.0,76,0.00,,SKC,0.00,VWS V14.01,2013-01-07 18:20:00,
2013-01-07 13:25:00,31.9,25.2,25.04,South,174,6.0,11.0,76,0.00,,SKC,0.00,VWS V14.01,2013-01-07 18:25:00,
2013-01-07 13:30:00,31.6,24.9,25.04,SSW,206,6.0,13.0,76,0.01,,SKC,0.01,VWS V14.01,2013-01-07 18:30:00,
2013-01-07 13:35:00,31.8,25.1,25.04,SW,217,6.0,9.0,76,0.01,,SKC,0.01,VWS V14.01,2013-01-07 18:35:00,
2013-01-07 13:40:00,31.8,25.1,25.04,SW,221,7.0,13.0,76,0.01,,SKC,0.01,VWS V14.01,2013-01-07 18:40:00,
2013-01-07 13:45:00,31.8,25.1,25.04,SSW,203,3.0,14.0,76,0.01,,SKC,0.01,VWS V14.01,2013-01-07 18:45:00,
2013-01-07 13:50:00,32.3,25.3,25.04,SSW,203,4.0,10.0,75,0.01,,SKC,0.01,VWS V14.01,2013-01-07 18:50:00,
2013-01-07 13:55:00,32.5,25.8,24.29,South,188,5.0,12.0,76,0.01,,SKC,0.01,VWS V14.01,2013-01-07 18:55:00,
2013-01-07 14:00:00,32.6,25.6,24.29,SSW,207,5.0,15.0,75,0.01,,SKC,0.01,VWS V14.01,2013-01-07 19:00:00,
2013-01-07 14:05:00,32.7,25.7,24.29,South,190,5.0,15.0,75,0.01,,SKC,0.01,VWS V14.01,2013-01-07 19:05:00,
2013-01-07 14:10:00,32.9,25.5,24.29,SSW,192,4.0,17.0,74,0.01,,SKC,0.01,VWS V14.01,2013-01-07 19:10:00,
2013-01-07 14:15:00,33.1,25.4,24.23,SSW,202,2.0,14.0,73,0.01,,SKC,0.01,VWS V14.01,2013-01-07 19:15:00,
2013-01-07 14:20:00,33.4,25.7,24.23,SSW,202,3.0,13.0,73,0.01,,SKC,0.01,VWS V14.01,2013-01-07 19:20:00,
2013-01-07 14:25:00,33.8,26.1,24.37,SSW,204,3.0,12.0,73,0.01,,SKC,0.01,VWS V14.01,2013-01-07 19:25:00,
2013-01-07 14:30:00,34.1,26.4,24.08,SSW,205,4.0,9.0,73,0.00,,SKC,0.01,VWS V14.01,2013-01-07 19:30:00,
2013-01-07 14:35:00,33.9,25.8,24.08,SSE,167,5.0,7.0,72,0.00,,SKC,0.01,VWS V14.01,2013-01-07 19:35:00,
2013-01-07 14:40:00,33.8,25.7,24.68,South,183,8.0,15.0,72,0.00,,SKC,0.01,VWS V14.01,2013-01-07 19:40:00,
2013-01-07 14:45:00,33.7,26.0,24.68,SW,234,4.0,14.0,73,0.00,,SKC,0.01,VWS V14.01,2013-01-07 19:45:00,
2013-01-07 14:50:00,33.6,25.5,24.01,South,182,11.0,16.0,72,0.00,,SKC,0.01,VWS V14.01,2013-01-07 19:50:00,
2013-01-07 14:55:00,33.5,25.5,24.01,South,189,7.0,17.0,72,0.00,,SKC,0.01,VWS V14.01,2013-01-07 19:55:00,
2013-01-07 15:00:00,33.4,25.7,24.32,SSW,200,6.0,15.0,73,0.00,,SKC,0.01,VWS V14.01,2013-01-07 20:00:00,
2013-01-07 15:05:00,33.4,25.7,24.32,SE,140,10.0,16.0,73,0.00,,SKC,0.01,VWS V14.01,2013-01-07 20:05:00,
2013-01-07 15:10:00,33.7,25.6,24.85,South,179,7.0,13.0,72,0.00,,SKC,0.01,VWS V14.01,2013-01-07 20:10:00,
2013-01-07 15:15:00,33.5,25.5,24.85,SW,227,9.0,17.0,72,0.00,,SKC,0.01,VWS V14.01,2013-01-07 20:15:00,
2013-01-07 15:19:00,33.4,25.4,24.85,South,180,4.0,18.0,72,0.00,,SKC,0.01,VWS V14.01,2013-01-07 20:19:00,
2013-01-07 15:24:00,33.4,25.4,24.85,SSW,193,10.0,15.0,72,0.00,,SKC,0.01,VWS V14.01,2013-01-07 20:24:00,
2013-01-07 15:29:00,33.6,25.5,24.85,SSW,202,4.0,18.0,72,0.00,,SKC,0.01,VWS V14.01,2013-01-07 20:29:00,
2013-01-07 15:34:00,33.6,25.5,24.85,South,175,2.0,9.0,72,0.00,,SKC,0.01,VWS V14.01,2013-01-07 20:34:00,
2013-01-07 15:39:00,33.7,25.6,24.85,SSW,211,12.0,16.0,72,0.00,,SKC,0.01,VWS V14.01,2013-01-07 20:39:00,
2013-01-07 15:44:00,33.7,25.3,24.85,SSW,205,9.0,15.0,71,0.00,,SKC,0.01,VWS V14.01,2013-01-07 20:44:00,
2013-01-07 15:49:00,33.8,26.1,24.85,South,175,6.0,10.0,73,0.00,,SKC,0.01,VWS V14.01,2013-01-07 20:49:00,
2013-01-07 15:54:00,33.7,25.6,24.85,SSE,155,7.0,12.0,72,0.00,,SKC,0.01,VWS V14.01,2013-01-07 20:54:00,
2013-01-07 15:59:00,33.7,25.6,24.85,SSW,206,10.0,15.0,72,0.00,,SKC,0.01,VWS V14.01,2013-01-07 20:59:00,
2013-01-07 16:04:00,33.8,25.7,24.85,SSE,166,4.0,10.0,72,0.00,,SKC,0.01,VWS V14.01,2013-01-07 21:04:00,
2013-01-07 16:09:00,33.9,25.8,24.85,SSW,199,8.0,12.0,72,0.00,,SKC,0.01,VWS V14.01,2013-01-07 21:09:00,
2013-01-07 16:14:00,33.9,25.8,24.85,SW,217,5.0,7.0,72,0.00,,SKC,0.01,VWS V14.01,2013-01-07 21:14:00,
2013-01-07 16:19:00,34.0,25.9,24.50,SW,223,6.0,10.0,72,0.00,,SKC,0.01,VWS V14.01,2013-01-07 21:19:00,
2013-01-07 16:24:00,34.1,26.0,24.34,SW,215,2.0,10.0,72,0.00,,SKC,0.01,VWS V14.01,2013-01-07 21:24:00,
2013-01-07 16:29:00,34.1,26.0,24.34,SW,220,4.0,5.0,72,0.00,,SKC,0.01,VWS V14.01,2013-01-07 21:29:00,
2013-01-07 16:34:00,34.1,26.0,24.34,SSW,210,9.0,9.0,72,0.00,,SKC,0.01,VWS V14.01,2013-01-07 21:34:00,
2013-01-07 16:39:00,34.0,25.9,24.34,SW,219,6.0,7.0,72,0.00,,SKC,0.01,VWS V14.01,2013-01-07 21:39:00,
2013-01-07 16:44:00,33.9,25.8,24.34,SSW,211,2.0,7.0,72,0.00,,SKC,0.01,VWS V14.01,2013-01-07 21:44:00,
2013-01-07 16:49:00,33.8,25.7,24.34,SSW,208,2.0,9.0,72,0.00,,SKC,0.01,VWS V14.01,2013-01-07 21:49:00,
2013-01-07 16:54:00,33.7,25.6,24.34,SSW,211,5.0,11.0,72,0.00,,SKC,0.01,VWS V14.01,2013-01-07 21:54:00,
2013-01-07 16:59:00,33.4,25.7,24.34,South,191,3.0,9.0,73,0.00,,SKC,0.01,VWS V14.01,2013-01-07 21:59:00,
2013-01-07 17:04:00,33.3,25.6,24.55,SSW,209,3.0,7.0,73,0.00,,SKC,0.01,VWS V14.01,2013-01-07 22:04:00,
2013-01-07 17:09:00,33.0,25.6,24.55,SSW,210,3.0,8.0,74,0.00,,SKC,0.01,VWS V14.01,2013-01-07 22:09:00,
2013-01-07 17:14:00,32.8,25.8,24.55,SSW,196,1.0,10.0,75,0.00,,SKC,0.01,VWS V14.01,2013-01-07 22:14:00,
2013-01-07 17:19:00,32.5,25.5,24.55,SW,225,4.0,11.0,75,0.00,,SKC,0.01,VWS V14.01,2013-01-07 22:19:00,
2013-01-07 17:24:00,32.3,25.6,24.91,SSW,199,1.0,11.0,76,0.00,,SKC,0.01,VWS V14.01,2013-01-07 22:24:00,
2013-01-07 17:29:00,32.1,25.4,24.91,South,182,4.0,6.0,76,0.00,,SKC,0.01,VWS V14.01,2013-01-07 22:29:00,
2013-01-07 17:34:00,31.9,25.2,24.21,SW,232,4.0,4.0,76,0.00,,SKC,0.01,VWS V14.01,2013-01-07 22:34:00,
2013-01-07 17:39:00,31.7,25.3,24.21,SSW,198,2.0,4.0,77,0.00,,SKC,0.01,VWS V14.01,2013-01-07 22:39:00,
2013-01-07 17:44:00,31.5,25.1,24.21,SSE,167,0.0,3.0,77,0.00,,SKC,0.01,VWS V14.01,2013-01-07 22:44:00,
2013-01-07 17:49:00,31.4,25.4,24.21,SSW,201,2.0,3.0,78,0.00,,SKC,0.01,VWS V14.01,2013-01-07 22:49:00,
2013-01-07 17:54:00,31.1,25.0,24.21,SSW,194,1.0,5.0,78,0.00,,SKC,0.01,VWS V14.01,2013-01-07 22:54:00,
2013-01-07 17:59:00,30.9,24.9,24.21,SSW,194,0.0,3.0,78,0.00,,SKC,0.01,VWS V14.01,2013-01-07 22:59:00,
2013-01-07 18:04:00,30.7,25.0,24.25,South,188,1.0,4.0,79,0.00,,SKC,0.01,VWS V14.01,2013-01-07 23:04:00,
2013-01-07 18:09:00,30.6,24.9,24.25,South,188,0.0,2.0,79,0.00,,SKC,0.01,VWS V14.01,2013-01-07 23:09:00,
2013-01-07 18:14:00,30.4,24.7,24.25,South,188,3.0,4.0,79,0.00,,SKC,0.01,VWS V14.01,2013-01-07 23:14:00,
2013-01-07 18:19:00,30.3,24.6,24.33,South,180,2.0,3.0,79,0.00,,SKC,0.01,VWS V14.01,2013-01-07 23:19:00,
2013-01-07 18:24:00,30.2,24.5,24.33,South,190,2.0,2.0,79,0.00,,SKC,0.01,VWS V14.01,2013-01-07 23:24:00,
2013-01-07 18:29:00,30.1,24.4,24.33,South,190,0.0,1.0,79,0.00,,SKC,0.01,VWS V14.01,2013-01-07 23:29:00,
2013-01-07 18:34:00,29.9,24.5,24.33,South,189,0.0,1.0,80,0.00,,SKC,0.01,VWS V14.01,2013-01-07 23:34:00,
2013-01-07 18:39:00,29.8,24.4,24.33,South,188,2.0,2.0,80,0.00,,SKC,0.01,VWS V14.01,2013-01-07 23:39:00,
2013-01-07 18:44:00,29.7,24.3,24.33,South,188,0.0,2.0,80,0.00,,SKC,0.01,VWS V14.01,2013-01-07 23:44:00,
2013-01-07 18:49:00,29.5,24.1,24.48,South,186,0.0,2.0,80,0.00,,SKC,0.01,VWS V14.01,2013-01-07 23:49:00,
2013-01-07 18:54:00,29.4,24.3,24.48,South,186,0.0,0.0,81,0.00,,SKC,0.01,VWS V14.01,2013-01-07 23:54:00,
2013-01-07 18:59:00,29.2,24.1,24.48,South,186,0.0,0.0,81,0.00,,SKC,0.01,VWS V14.01,2013-01-07 23:59:00,
2013-01-07 19:04:00,29.1,24.0,24.48,South,187,1.0,2.0,81,0.00,,SKC,0.01,VWS V14.01,2013-01-08 00:04:00,
2013-01-07 19:09:00,28.9,24.1,24.48,South,186,0.0,1.0,82,0.00,,SKC,0.01,VWS V14.01,2013-01-08 00:09:00,
2013-01-07 19:14:00,28.8,24.0,24.48,South,186,1.0,2.0,82,0.00,,SKC,0.01,VWS V14.01,2013-01-08 00:14:00,
2013-01-07 19:19:00,28.7,23.9,25.03,South,186,0.0,1.0,82,0.00,,SKC,0.01,VWS V14.01,2013-01-08 00:19:00,
2013-01-07 19:24:00,28.6,23.8,25.03,South,186,0.0,0.0,82,0.00,,SKC,0.01,VWS V14.01,2013-01-08 00:24:00,
2013-01-07 19:29:00,28.5,23.7,25.03,South,186,0.0,0.0,82,0.00,,SKC,0.01,VWS V14.01,2013-01-08 00:29:00,
2013-01-07 19:34:00,28.5,23.7,25.03,South,186,2.0,2.0,82,0.00,,SKC,0.01,VWS V14.01,2013-01-08 00:34:00,
2013-01-07 19:39:00,28.4,23.9,25.03,South,186,2.0,2.0,83,0.00,,SKC,0.01,VWS V14.01,2013-01-08 00:39:00,
2013-01-07 19:44:00,28.3,23.8,24.60,South,185,2.0,2.0,83,0.00,,SKC,0.01,VWS V14.01,2013-01-08 00:44:00,
2013-01-07 19:49:00,28.3,23.8,24.60,South,183,0.0,3.0,83,0.00,,SKC,0.01,VWS V14.01,2013-01-08 00:49:00,
2013-01-07 19:54:00,28.3,23.8,24.60,South,183,2.0,3.0,83,0.00,,SKC,0.01,VWS V14.01,2013-01-08 00:54:00,
2013-01-07 19:59:00,28.3,23.8,24.60,South,173,3.0,4.0,83,0.00,,SKC,0.01,VWS V14.01,2013-01-08 00:59:00,
2013-01-07 20:04:00,28.3,23.8,24.60,South,182,2.0,5.0,83,0.00,,SKC,0.01,VWS V14.01,2013-01-08 01:04:00,
2013-01-07 20:09:00,28.3,23.8,24.60,South,174,2.0,3.0,83,0.00,,SKC,0.01,VWS V14.01,2013-01-08 01:09:00,
2013-01-07 20:14:00,28.4,23.9,24.60,South,179,3.0,5.0,83,0.00,,SKC,0.01,VWS V14.01,2013-01-08 01:14:00,
2013-01-07 20:19:00,28.6,24.1,24.41,South,169,3.0,5.0,83,0.00,,SKC,0.01,VWS V14.01,2013-01-08 01:19:00,
2013-01-07 20:24:00,28.8,24.0,24.78,SE,144,3.0,5.0,82,0.00,,SKC,0.01,VWS V14.01,2013-01-08 01:24:00,
2013-01-07 20:29:00,28.8,24.0,24.78,South,180,4.0,5.0,82,0.00,,SKC,0.01,VWS V14.01,2013-01-08 01:29:00,
2013-01-07 20:34:00,28.8,24.0,24.78,South,186,1.0,6.0,82,0.00,,SKC,0.01,VWS V14.01,2013-01-08 01:34:00,
2013-01-07 20:39:00,28.9,24.1,24.78,South,191,3.0,6.0,82,0.00,,SKC,0.01,VWS V14.01,2013-01-08 01:39:00,
2013-01-07 20:44:00,29.0,23.9,24.78,SSW,196,5.0,5.0,81,0.00,,SKC,0.01,VWS V14.01,2013-01-08 01:44:00,
2013-01-07 20:49:00,29.1,24.0,24.78,SSW,192,3.0,6.0,81,0.00,,SKC,0.01,VWS V14.01,2013-01-08 01:49:00,
2013-01-07 20:54:00,29.2,24.1,25.15,South,178,3.0,5.0,81,0.00,,SKC,0.01,VWS V14.01,2013-01-08 01:54:00,
2013-01-07 20:59:00,29.1,24.0,25.15,South,177,2.0,3.0,81,0.00,,SKC,0.01,VWS V14.01,2013-01-08 01:59:00,
2013-01-07 21:04:00,29.0,23.9,25.15,South,187,2.0,4.0,81,0.00,,SKC,0.01,VWS V14.01,2013-01-08 02:04:00,
2013-01-07 21:09:00,29.0,23.9,24.75,South,186,3.0,6.0,81,0.00,,SKC,0.01,VWS V14.01,2013-01-08 02:09:00,
2013-01-07 21:14:00,29.1,24.0,24.75,SSW,194,5.0,6.0,81,0.00,,SKC,0.01,VWS V14.01,2013-01-08 02:14:00,
2013-01-07 21:19:00,29.2,24.1,24.75,South,180,3.0,7.0,81,0.00,,SKC,0.01,VWS V14.01,2013-01-08 02:19:00,
2013-01-07 21:24:00,29.3,24.2,24.75,South,188,5.0,6.0,81,0.00,,SKC,0.01,VWS V14.01,2013-01-08 02:24:00,
2013-01-07 21:29:00,29.5,24.4,24.75,SSW,196,6.0,9.0,81,0.00,,SKC,0.01,VWS V14.01,2013-01-08 02:29:00,
2013-01-07 21:34:00,29.6,24.5,24.75,South,181,12.0,12.0,81,0.00,,SKC,0.01,VWS V14.01,2013-01-08 02:34:00,
2013-01-07 21:39:00,30.0,24.6,24.75,South,191,1.0,11.0,80,0.00,,SKC,0.01,VWS V14.01,2013-01-08 02:39:00,
2013-01-07 21:44:00,30.2,24.8,24.75,South,171,3.0,9.0,80,0.00,,SKC,0.01,VWS V14.01,2013-01-08 02:44:00,
2013-01-07 21:49:00,30.3,24.6,24.75,South,171,9.0,10.0,79,0.00,,SKC,0.01,VWS V14.01,2013-01-08 02:49:00,
2013-01-07 21:54:00,30.5,24.8,24.75,South,179,4.0,6.0,79,0.00,,SKC,0.01,VWS V14.01,2013-01-08 02:54:00,
2013-01-07 21:59:00,30.6,24.9,24.75,South,187,6.0,6.0,79,0.00,,SKC,0.01,VWS V14.01,2013-01-08 02:59:00,
2013-01-07 22:04:00,30.7,25.0,24.75,South,175,5.0,6.0,79,0.00,,SKC,0.01,VWS V14.01,2013-01-08 03:04:00,
2013-01-07 22:09:00,30.9,25.2,24.75,SSW,193,4.0,6.0,79,0.00,,SKC,0.01,VWS V14.01,2013-01-08 03:09:00,
2013-01-07 22:14:00,31.0,25.0,24.75,SSW,194,6.0,6.0,78,0.00,,SKC,0.01,VWS V14.01,2013-01-08 03:14:00,
2013-01-07 22:19:00,31.0,25.0,24.75,SSW,195,5.0,7.0,78,0.00,,SKC,0.01,VWS V14.01,2013-01-08 03:19:00,
2013-01-07 22:24:00,31.1,25.0,24.75,South,179,3.0,9.0,78,0.00,,SKC,0.01,VWS V14.01,2013-01-08 03:24:00,
2013-01-07 22:29:00,31.3,25.2,24.75,SW,215,10.0,10.0,78,0.00,,SKC,0.01,VWS V14.01,2013-01-08 03:29:00,
2013-01-07 22:34:00,31.4,25.4,24.75,SSW,195,3.0,8.0,78,0.00,,SKC,0.01,VWS V14.01,2013-01-08 03:34:00,
2013-01-07 22:39:00,31.3,25.2,24.75,South,175,0.0,7.0,78,0.00,,SKC,0.01,VWS V14.01,2013-01-08 03:39:00,
2013-01-07 22:44:00,31.2,25.1,24.75,SSW,207,1.0,4.0,78,0.00,,SKC,0.01,VWS V14.01,2013-01-08 03:44:00,
2013-01-07 22:49:00,31.1,25.0,24.75,SSW,209,5.0,5.0,78,0.00,,SKC,0.01,VWS V14.01,2013-01-08 03:49:00,
2013-01-07 22:53:00,31.1,25.0,24.31,South,190,3.0,4.0,78,0.00,,SKC,0.01,VWS V14.01,2013-01-08 03:53:00,
2013-01-07 22:58:00,31.0,25.0,24.31,SSW,203,3.0,11.0,78,0.00,,SKC,0.01,VWS V14.01,2013-01-08 03:58:00,
2013-01-07 23:03:00,30.8,24.8,24.31,SW,219,8.0,10.0,78,0.00,,SKC,0.01,VWS V14.01,2013-01-08 04:03:00,
2013-01-07 23:08:00,30.7,25.0,24.31,SW,221,5.0,10.0,79,0.00,,SKC,0.01,VWS V14.01,2013-01-08 04:08:00,
2013-01-07 23:13:00,30.5,24.8,24.31,SSE,168,3.0,3.0,79,0.00,,SKC,0.01,VWS V14.01,2013-01-08 04:13:00,
2013-01-07 23:18:00,30.3,24.6,24.31,South,190,7.0,12.0,79,0.00,,SKC,0.01,VWS V14.01,2013-01-08 04:18:00,
2013-01-07 23:23:00,30.2,24.5,24.31,SSW,202,2.0,4.0,79,0.00,,SKC,0.01,VWS V14.01,2013-01-08 04:23:00,
2013-01-07 23:28:00,30.1,24.4,24.31,SSW,207,9.0,9.0,79,0.00,,SKC,0.01,VWS V14.01,2013-01-08 04:28:00,
2013-01-07 23:33:00,29.9,24.2,24.12,SW,214,1.0,5.0,79,0.00,,SKC,0.01,VWS V14.01,2013-01-08 04:33:00,
2013-01-07 23:38:00,29.8,24.4,24.12,SSW,194,6.0,6.0,80,0.00,,SKC,0.01,VWS V14.01,2013-01-08 04:38:00,
2013-01-07 23:43:00,29.7,24.3,24.81,South,190,3.0,8.0,80,0.00,,SKC,0.01,VWS V14.01,2013-01-08 04:43:00,
2013-01-07 23:48:00,29.7,24.3,24.16,South,185,6.0,8.0,80,0.00,,SKC,0.01,VWS V14.01,2013-01-08 04:48:00,
2013-01-07 23:53:00,29.6,24.2,24.16,South,190,4.0,8.0,80,0.00,,SKC,0.01,VWS V14.01,2013-01-08 04:53:00,
2013-01-07 23:58:00,29.6,24.2,24.16,South,190,4.0,6.0,80,0.00,,SKC,0.01,VWS V14.01,2013-01-08 04:58:00,